sensor_id;sensor_type;location;lat;lon;timestamp;pressure;altitude;pressure_sealevel;temperature;humidity
36834;BME280;48003;52.084;5.224;2023-05-16T00:00:49;102005.0;;;11.97;67.48
36834;BME280;48003;52.084;5.224;2023-05-16T00:02:25;102005.0;;;11.97;67.35
36834;BME280;48003;52.084;5.224;2023-05-16T00:05:37;102006.0;;;12.01;67.22
36834;BME280;48003;52.084;5.224;2023-05-16T00:07:13;102009.0;;;11.96;67.17
36834;BME280;48003;52.084;5.224;2023-05-16T00:08:49;102002.0;;;11.96;67.13
36834;BME280;48003;52.084;5.224;2023-05-16T00:12:02;102005.0;;;11.97;67.08
36834;BME280;48003;52.084;5.224;2023-05-16T00:13:38;102009.0;;;11.84;67.24
36834;BME280;48003;52.084;5.224;2023-05-16T00:15:14;102008.0;;;11.94;66.87
36834;BME280;48003;52.084;5.224;2023-05-16T00:16:51;102009.0;;;11.81;67.0
36834;BME280;48003;52.084;5.224;2023-05-16T00:20:04;102013.0;;;11.82;66.99
36834;BME280;48003;52.084;5.224;2023-05-16T00:21:40;102016.0;;;11.76;67.02
36834;BME280;48003;52.084;5.224;2023-05-16T00:23:16;102011.0;;;11.87;66.77
36834;BME280;48003;52.084;5.224;2023-05-16T00:26:28;102012.0;;;11.84;66.89
36834;BME280;48003;52.084;5.224;2023-05-16T00:28:05;102015.0;;;11.79;66.87
36834;BME280;48003;52.084;5.224;2023-05-16T00:29:40;102011.0;;;11.79;66.8
36834;BME280;48003;52.084;5.224;2023-05-16T00:32:53;102013.0;;;11.79;66.73
36834;BME280;48003;52.084;5.224;2023-05-16T00:34:29;102013.0;;;11.79;66.59
36834;BME280;48003;52.084;5.224;2023-05-16T00:36:06;102016.0;;;11.72;66.72
36834;BME280;48003;52.084;5.224;2023-05-16T00:37:42;102019.0;;;11.66;66.91
36834;BME280;48003;52.084;5.224;2023-05-16T00:40:55;102015.0;;;11.69;66.83
36834;BME280;48003;52.084;5.224;2023-05-16T00:42:31;102019.0;;;11.7;66.77
36834;BME280;48003;52.084;5.224;2023-05-16T00:44:07;102020.0;;;11.75;66.67
36834;BME280;48003;52.084;5.224;2023-05-16T00:47:20;102022.0;;;11.73;66.66
36834;BME280;48003;52.084;5.224;2023-05-16T00:48:56;102023.0;;;11.75;66.63
36834;BME280;48003;52.084;5.224;2023-05-16T00:50:32;102019.0;;;11.73;66.58
36834;BME280;48003;52.084;5.224;2023-05-16T00:53:45;102020.0;;;11.63;66.83
36834;BME280;48003;52.084;5.224;2023-05-16T00:55:22;102020.0;;;11.64;66.94
36834;BME280;48003;52.084;5.224;2023-05-16T00:56:58;102023.0;;;11.69;66.74
36834;BME280;48003;52.084;5.224;2023-05-16T01:00:11;102018.0;;;11.65;66.94
36834;BME280;48003;52.084;5.224;2023-05-16T01:01:49;102022.0;;;11.64;67.03
36834;BME280;48003;52.084;5.224;2023-05-16T01:03:26;102022.0;;;11.63;67.02
36834;BME280;48003;52.084;5.224;2023-05-16T01:05:03;102021.0;;;11.62;67.14
36834;BME280;48003;52.084;5.224;2023-05-16T01:08:16;102019.0;;;11.67;67.02
36834;BME280;48003;52.084;5.224;2023-05-16T01:09:52;102023.0;;;11.58;67.35
36834;BME280;48003;52.084;5.224;2023-05-16T01:11:33;102019.0;;;11.62;67.22
36834;BME280;48003;52.084;5.224;2023-05-16T01:15:03;102020.0;;;11.63;67.22
36834;BME280;48003;52.084;5.224;2023-05-16T01:16:45;102023.0;;;11.65;67.24
36834;BME280;48003;52.084;5.224;2023-05-16T01:18:36;102024.0;;;11.65;67.24
36834;BME280;48003;52.084;5.224;2023-05-16T01:20:25;102025.0;;;11.63;67.28
36834;BME280;48003;52.084;5.224;2023-05-16T01:22:10;102027.0;;;11.61;67.25
36834;BME280;48003;52.084;5.224;2023-05-16T01:23:51;102030.0;;;11.6;67.22
36834;BME280;48003;52.084;5.224;2023-05-16T01:27:21;102028.0;;;11.53;67.33
36834;BME280;48003;52.084;5.224;2023-05-16T01:28:58;102028.0;;;11.48;67.44
36834;BME280;48003;52.084;5.224;2023-05-16T01:30:37;102027.0;;;11.5;67.28
36834;BME280;48003;52.084;5.224;2023-05-16T01:32:15;102028.0;;;11.49;67.35
36834;BME280;48003;52.084;5.224;2023-05-16T01:35:28;102028.0;;;11.52;67.28
36834;BME280;48003;52.084;5.224;2023-05-16T01:37:11;102030.0;;;11.49;67.37
36834;BME280;48003;52.084;5.224;2023-05-16T01:39:01;102032.0;;;11.53;67.3
36834;BME280;48003;52.084;5.224;2023-05-16T01:40:48;102026.0;;;11.46;67.47
36834;BME280;48003;52.084;5.224;2023-05-16T01:44:23;102030.0;;;11.48;67.44
36834;BME280;48003;52.084;5.224;2023-05-16T01:46:03;102024.0;;;11.43;67.56
36834;BME280;48003;52.084;5.224;2023-05-16T01:47:50;102030.0;;;11.4;67.73
36834;BME280;48003;52.084;5.224;2023-05-16T01:49:38;102026.0;;;11.36;67.89
36834;BME280;48003;52.084;5.224;2023-05-16T01:51:20;102030.0;;;11.35;68.12
36834;BME280;48003;52.084;5.224;2023-05-16T01:54:42;102032.0;;;11.35;68.08
36834;BME280;48003;52.084;5.224;2023-05-16T01:56:20;102031.0;;;11.42;68.02
36834;BME280;48003;52.084;5.224;2023-05-16T01:57:57;102035.0;;;11.36;68.09
36834;BME280;48003;52.084;5.224;2023-05-16T01:59:35;102036.0;;;11.37;68.2
36834;BME280;48003;52.084;5.224;2023-05-16T02:02:49;102038.0;;;11.42;68.02
36834;BME280;48003;52.084;5.224;2023-05-16T02:04:26;102036.0;;;11.35;68.19
36834;BME280;48003;52.084;5.224;2023-05-16T02:06:02;102041.0;;;11.35;68.31
36834;BME280;48003;52.084;5.224;2023-05-16T02:07:38;102042.0;;;11.27;68.59
36834;BME280;48003;52.084;5.224;2023-05-16T02:10:50;102042.0;;;11.21;68.7
36834;BME280;48003;52.084;5.224;2023-05-16T02:12:26;102043.0;;;11.25;68.59
36834;BME280;48003;52.084;5.224;2023-05-16T02:14:02;102046.0;;;11.28;68.58
36834;BME280;48003;52.084;5.224;2023-05-16T02:17:15;102046.0;;;11.3;68.53
36834;BME280;48003;52.084;5.224;2023-05-16T02:18:51;102048.0;;;11.26;68.64
36834;BME280;48003;52.084;5.224;2023-05-16T02:20:27;102052.0;;;11.24;68.62
36834;BME280;48003;52.084;5.224;2023-05-16T02:23:39;102056.0;;;11.23;68.62
36834;BME280;48003;52.084;5.224;2023-05-16T02:25:16;102055.0;;;11.2;68.77
36834;BME280;48003;52.084;5.224;2023-05-16T02:26:52;102055.0;;;11.19;68.81
36834;BME280;48003;52.084;5.224;2023-05-16T02:30:05;102053.0;;;11.14;68.83
36834;BME280;48003;52.084;5.224;2023-05-16T02:31:41;102055.0;;;11.14;68.92
36834;BME280;48003;52.084;5.224;2023-05-16T02:33:17;102055.0;;;11.13;68.97
36834;BME280;48003;52.084;5.224;2023-05-16T02:34:53;102058.0;;;11.2;68.8
36834;BME280;48003;52.084;5.224;2023-05-16T02:38:06;102061.0;;;11.24;68.66
36834;BME280;48003;52.084;5.224;2023-05-16T02:39:43;102058.0;;;11.21;68.77
36834;BME280;48003;52.084;5.224;2023-05-16T02:41:19;102063.0;;;11.17;68.8
36834;BME280;48003;52.084;5.224;2023-05-16T02:44:31;102063.0;;;11.23;68.73
36834;BME280;48003;52.084;5.224;2023-05-16T02:46:20;102062.0;;;11.2;68.73
36834;BME280;48003;52.084;5.224;2023-05-16T02:47:56;102064.0;;;11.16;68.78
36834;BME280;48003;52.084;5.224;2023-05-16T02:49:32;102060.0;;;11.15;68.8
36834;BME280;48003;52.084;5.224;2023-05-16T02:52:44;102061.0;;;11.18;68.67
36834;BME280;48003;52.084;5.224;2023-05-16T02:54:20;102061.0;;;11.13;68.86
36834;BME280;48003;52.084;5.224;2023-05-16T02:55:57;102066.0;;;11.24;68.66
36834;BME280;48003;52.084;5.224;2023-05-16T02:59:09;102065.0;;;11.22;68.59
36834;BME280;48003;52.084;5.224;2023-05-16T03:00:46;102066.0;;;11.26;68.52
36834;BME280;48003;52.084;5.224;2023-05-16T03:02:22;102071.0;;;11.22;68.61
36834;BME280;48003;52.084;5.224;2023-05-16T03:05:35;102074.0;;;11.24;68.62
36834;BME280;48003;52.084;5.224;2023-05-16T03:07:11;102075.0;;;11.23;68.66
36834;BME280;48003;52.084;5.224;2023-05-16T03:08:47;102077.0;;;11.19;68.66
36834;BME280;48003;52.084;5.224;2023-05-16T03:10:23;102075.0;;;11.19;68.63
36834;BME280;48003;52.084;5.224;2023-05-16T03:13:35;102078.0;;;11.13;68.83
36834;BME280;48003;52.084;5.224;2023-05-16T03:15:11;102075.0;;;11.17;68.94
36834;BME280;48003;52.084;5.224;2023-05-16T03:16:48;102074.0;;;11.15;68.86
36834;BME280;48003;52.084;5.224;2023-05-16T03:19:59;102074.0;;;11.11;68.97
36834;BME280;48003;52.084;5.224;2023-05-16T03:21:35;102073.0;;;11.12;68.86
36834;BME280;48003;52.084;5.224;2023-05-16T03:23:11;102080.0;;;11.07;69.08
36834;BME280;48003;52.084;5.224;2023-05-16T03:26:24;102082.0;;;11.07;69.06
36834;BME280;48003;52.084;5.224;2023-05-16T03:28:00;102083.0;;;11.08;69.11
36834;BME280;48003;52.084;5.224;2023-05-16T03:29:36;102087.0;;;11.06;69.02
36834;BME280;48003;52.084;5.224;2023-05-16T03:32:48;102089.0;;;11.11;69.08
36834;BME280;48003;52.084;5.224;2023-05-16T03:34:25;102082.0;;;11.08;69.17
36834;BME280;48003;52.084;5.224;2023-05-16T03:36:01;102087.0;;;11.08;69.08
36834;BME280;48003;52.084;5.224;2023-05-16T03:37:37;102092.0;;;11.05;69.16
36834;BME280;48003;52.084;5.224;2023-05-16T03:40:49;102088.0;;;11.08;69.11
36834;BME280;48003;52.084;5.224;2023-05-16T03:42:25;102093.0;;;11.06;69.02
36834;BME280;48003;52.084;5.224;2023-05-16T03:44:01;102097.0;;;11.05;69.12
36834;BME280;48003;52.084;5.224;2023-05-16T03:47:14;102099.0;;;11.06;69.19
36834;BME280;48003;52.084;5.224;2023-05-16T03:48:50;102098.0;;;11.03;69.38
36834;BME280;48003;52.084;5.224;2023-05-16T03:50:26;102097.0;;;11.05;69.33
36834;BME280;48003;52.084;5.224;2023-05-16T03:53:38;102097.0;;;11.04;69.77
36834;BME280;48003;52.084;5.224;2023-05-16T03:55:15;102100.0;;;11.04;69.55
36834;BME280;48003;52.084;5.224;2023-05-16T03:56:51;102100.0;;;11.04;69.64
36834;BME280;48003;52.084;5.224;2023-05-16T04:00:06;102099.0;;;11.04;69.55
36834;BME280;48003;52.084;5.224;2023-05-16T04:01:42;102103.0;;;11.01;69.77
36834;BME280;48003;52.084;5.224;2023-05-16T04:03:18;102101.0;;;10.99;69.84
36834;BME280;48003;52.084;5.224;2023-05-16T04:04:55;102106.0;;;11.01;69.97
36834;BME280;48003;52.084;5.224;2023-05-16T04:08:07;102105.0;;;10.99;69.83
36834;BME280;48003;52.084;5.224;2023-05-16T04:09:43;102105.0;;;11.03;69.92
36834;BME280;48003;52.084;5.224;2023-05-16T04:11:19;102106.0;;;11.02;69.94
36834;BME280;48003;52.084;5.224;2023-05-16T04:14:32;102105.0;;;11.02;69.87
36834;BME280;48003;52.084;5.224;2023-05-16T04:16:10;102107.0;;;11.01;70.05
36834;BME280;48003;52.084;5.224;2023-05-16T04:17:46;102108.0;;;11.03;70.02
36834;BME280;48003;52.084;5.224;2023-05-16T04:20:58;102111.0;;;11.02;70.16
36834;BME280;48003;52.084;5.224;2023-05-16T04:22:34;102110.0;;;11.03;70.12
36834;BME280;48003;52.084;5.224;2023-05-16T04:24:11;102110.0;;;11.04;70.14
36834;BME280;48003;52.084;5.224;2023-05-16T04:25:47;102110.0;;;11.03;70.3
36834;BME280;48003;52.084;5.224;2023-05-16T04:28:59;102112.0;;;11.01;70.3
36834;BME280;48003;52.084;5.224;2023-05-16T04:30:35;102117.0;;;11.01;70.58
36834;BME280;48003;52.084;5.224;2023-05-16T04:32:11;102115.0;;;10.99;70.7
36834;BME280;48003;52.084;5.224;2023-05-16T04:35:24;102124.0;;;11.02;70.66
36834;BME280;48003;52.084;5.224;2023-05-16T04:37:01;102121.0;;;11.01;70.63
36834;BME280;48003;52.084;5.224;2023-05-16T04:38:38;102124.0;;;11.04;70.77
36834;BME280;48003;52.084;5.224;2023-05-16T04:41:51;102131.0;;;11.06;70.74
36834;BME280;48003;52.084;5.224;2023-05-16T04:43:27;102131.0;;;11.08;70.77
36834;BME280;48003;52.084;5.224;2023-05-16T04:45:03;102132.0;;;11.09;70.7
36834;BME280;48003;52.084;5.224;2023-05-16T04:46:40;102133.0;;;11.11;70.5
36834;BME280;48003;52.084;5.224;2023-05-16T04:49:52;102135.0;;;11.17;70.3
36834;BME280;48003;52.084;5.224;2023-05-16T04:51:28;102137.0;;;11.19;70.19
36834;BME280;48003;52.084;5.224;2023-05-16T04:53:05;102145.0;;;11.22;70.41
36834;BME280;48003;52.084;5.224;2023-05-16T04:56:17;102141.0;;;11.21;70.41
36834;BME280;48003;52.084;5.224;2023-05-16T04:57:53;102145.0;;;11.2;70.47
36834;BME280;48003;52.084;5.224;2023-05-16T04:59:29;102150.0;;;11.23;70.48
36834;BME280;48003;52.084;5.224;2023-05-16T05:02:42;102149.0;;;11.34;70.38
36834;BME280;48003;52.084;5.224;2023-05-16T05:04:18;102148.0;;;11.36;70.36
36834;BME280;48003;52.084;5.224;2023-05-16T05:05:54;102148.0;;;11.38;70.58
36834;BME280;48003;52.084;5.224;2023-05-16T05:09:07;102152.0;;;11.36;70.45
36834;BME280;48003;52.084;5.224;2023-05-16T05:10:43;102152.0;;;11.39;70.66
36834;BME280;48003;52.084;5.224;2023-05-16T05:12:20;102152.0;;;11.46;70.61
36834;BME280;48003;52.084;5.224;2023-05-16T05:13:56;102152.0;;;11.48;70.53
36834;BME280;48003;52.084;5.224;2023-05-16T05:17:08;102144.0;;;11.5;70.39
36834;BME280;48003;52.084;5.224;2023-05-16T05:18:44;102148.0;;;11.54;70.24
36834;BME280;48003;52.084;5.224;2023-05-16T05:20:20;102148.0;;;11.56;70.31
36834;BME280;48003;52.084;5.224;2023-05-16T05:23:33;102145.0;;;11.63;70.16
36834;BME280;48003;52.084;5.224;2023-05-16T05:25:09;102150.0;;;11.61;70.03
36834;BME280;48003;52.084;5.224;2023-05-16T05:26:45;102147.0;;;11.65;69.86
36834;BME280;48003;52.084;5.224;2023-05-16T05:29:57;102150.0;;;11.73;69.64
36834;BME280;48003;52.084;5.224;2023-05-16T05:31:33;102151.0;;;11.75;69.69
36834;BME280;48003;52.084;5.224;2023-05-16T05:33:10;102155.0;;;11.77;69.55
36834;BME280;48003;52.084;5.224;2023-05-16T05:34:46;102159.0;;;11.82;69.39
36834;BME280;48003;52.084;5.224;2023-05-16T05:37:58;102162.0;;;11.85;69.23
36834;BME280;48003;52.084;5.224;2023-05-16T05:39:35;102160.0;;;11.83;69.05
36834;BME280;48003;52.084;5.224;2023-05-16T05:41:12;102165.0;;;11.88;68.98
36834;BME280;48003;52.084;5.224;2023-05-16T05:44:24;102173.0;;;11.94;68.75
36834;BME280;48003;52.084;5.224;2023-05-16T05:46:00;102174.0;;;12.02;68.58
36834;BME280;48003;52.084;5.224;2023-05-16T05:47:36;102180.0;;;12.03;68.41
36834;BME280;48003;52.084;5.224;2023-05-16T05:50:49;102175.0;;;12.07;68.12
36834;BME280;48003;52.084;5.224;2023-05-16T05:52:25;102172.0;;;12.14;67.83
36834;BME280;48003;52.084;5.224;2023-05-16T05:54:01;102173.0;;;12.3;67.72
36834;BME280;48003;52.084;5.224;2023-05-16T05:55:38;102171.0;;;12.36;67.2
36834;BME280;48003;52.084;5.224;2023-05-16T05:58:51;102166.0;;;12.37;67.06
36834;BME280;48003;52.084;5.224;2023-05-16T06:00:27;102169.0;;;12.34;66.88
36834;BME280;48003;52.084;5.224;2023-05-16T06:02:03;102169.0;;;12.38;66.69
36834;BME280;48003;52.084;5.224;2023-05-16T06:05:15;102172.0;;;12.49;66.78
36834;BME280;48003;52.084;5.224;2023-05-16T06:06:51;102176.0;;;12.55;66.62
36834;BME280;48003;52.084;5.224;2023-05-16T06:08:27;102178.0;;;12.6;66.08
36834;BME280;48003;52.084;5.224;2023-05-16T06:11:41;102181.0;;;12.55;66.3
36834;BME280;48003;52.084;5.224;2023-05-16T06:13:17;102181.0;;;12.67;66.02
36834;BME280;48003;52.084;5.224;2023-05-16T06:14:53;102186.0;;;12.67;66.05
36834;BME280;48003;52.084;5.224;2023-05-16T06:18:06;102192.0;;;12.6;65.24
36834;BME280;48003;52.084;5.224;2023-05-16T06:19:42;102197.0;;;12.53;64.16
36834;BME280;48003;52.084;5.224;2023-05-16T06:21:18;102199.0;;;12.64;64.02
36834;BME280;48003;52.084;5.224;2023-05-16T06:22:54;102197.0;;;12.7;63.67
36834;BME280;48003;52.084;5.224;2023-05-16T06:26:07;102197.0;;;12.7;63.56
36834;BME280;48003;52.084;5.224;2023-05-16T06:27:43;102201.0;;;12.71;63.63
36834;BME280;48003;52.084;5.224;2023-05-16T06:29:19;102201.0;;;12.73;63.74
36834;BME280;48003;52.084;5.224;2023-05-16T06:32:31;102192.0;;;12.79;63.43
36834;BME280;48003;52.084;5.224;2023-05-16T06:34:07;102190.0;;;12.85;63.35
36834;BME280;48003;52.084;5.224;2023-05-16T06:35:43;102197.0;;;12.81;63.45
36834;BME280;48003;52.084;5.224;2023-05-16T06:38:57;102194.0;;;12.8;62.92
36834;BME280;48003;52.084;5.224;2023-05-16T06:40:33;102199.0;;;12.79;62.31
36834;BME280;48003;52.084;5.224;2023-05-16T06:42:09;102200.0;;;12.74;62.7
36834;BME280;48003;52.084;5.224;2023-05-16T06:43:45;102209.0;;;12.82;62.35
36834;BME280;48003;52.084;5.224;2023-05-16T06:46:58;102205.0;;;12.88;62.7
36834;BME280;48003;52.084;5.224;2023-05-16T06:48:34;102203.0;;;12.94;62.14
36834;BME280;48003;52.084;5.224;2023-05-16T06:50:10;102206.0;;;12.98;62.14
36834;BME280;48003;52.084;5.224;2023-05-16T06:53:22;102212.0;;;12.89;62.14
36834;BME280;48003;52.084;5.224;2023-05-16T06:54:59;102206.0;;;13.05;62.24
36834;BME280;48003;52.084;5.224;2023-05-16T06:56:35;102205.0;;;13.06;62.18
36834;BME280;48003;52.084;5.224;2023-05-16T06:59:47;102200.0;;;13.12;61.83
36834;BME280;48003;52.084;5.224;2023-05-16T07:01:23;102203.0;;;13.13;61.73
36834;BME280;48003;52.084;5.224;2023-05-16T07:02:59;102199.0;;;13.02;61.54
36834;BME280;48003;52.084;5.224;2023-05-16T07:06:11;102201.0;;;13.04;60.8
36834;BME280;48003;52.084;5.224;2023-05-16T07:07:47;102201.0;;;13.08;61.12
36834;BME280;48003;52.084;5.224;2023-05-16T07:09:23;102198.0;;;13.03;60.26
36834;BME280;48003;52.084;5.224;2023-05-16T07:10:59;102206.0;;;13.06;59.96
36834;BME280;48003;52.084;5.224;2023-05-16T07:14:12;102206.0;;;13.12;59.43
36834;BME280;48003;52.084;5.224;2023-05-16T07:15:48;102210.0;;;13.28;59.49
36834;BME280;48003;52.084;5.224;2023-05-16T07:17:24;102210.0;;;13.29;59.56
36834;BME280;48003;52.084;5.224;2023-05-16T07:20:37;102210.0;;;13.41;59.28
36834;BME280;48003;52.084;5.224;2023-05-16T07:22:13;102203.0;;;13.44;58.83
36834;BME280;48003;52.084;5.224;2023-05-16T07:23:49;102207.0;;;13.53;58.96
36834;BME280;48003;52.084;5.224;2023-05-16T07:27:01;102208.0;;;13.54;58.87
36834;BME280;48003;52.084;5.224;2023-05-16T07:28:37;102211.0;;;13.62;58.7
36834;BME280;48003;52.084;5.224;2023-05-16T07:30:13;102215.0;;;13.68;58.78
36834;BME280;48003;52.084;5.224;2023-05-16T07:33:26;102212.0;;;13.7;58.24
36834;BME280;48003;52.084;5.224;2023-05-16T07:35:02;102209.0;;;13.74;58.26
36834;BME280;48003;52.084;5.224;2023-05-16T07:36:39;102213.0;;;13.76;58.48
36834;BME280;48003;52.084;5.224;2023-05-16T07:38:16;102208.0;;;13.71;58.38
36834;BME280;48003;52.084;5.224;2023-05-16T07:41:29;102211.0;;;13.71;58.3
36834;BME280;48003;52.084;5.224;2023-05-16T07:43:06;102210.0;;;13.58;57.87
36834;BME280;48003;52.084;5.224;2023-05-16T07:44:42;102214.0;;;13.62;57.53
36834;BME280;48003;52.084;5.224;2023-05-16T07:47:54;102211.0;;;13.74;57.27
36834;BME280;48003;52.084;5.224;2023-05-16T07:49:31;102212.0;;;13.76;57.04
36834;BME280;48003;52.084;5.224;2023-05-16T07:51:07;102213.0;;;13.86;57.31
36834;BME280;48003;52.084;5.224;2023-05-16T07:54:19;102212.0;;;13.9;57.78
36834;BME280;48003;52.084;5.224;2023-05-16T07:55:55;102218.0;;;13.98;57.81
36834;BME280;48003;52.084;5.224;2023-05-16T07:57:31;102218.0;;;14.05;58.15
36834;BME280;48003;52.084;5.224;2023-05-16T07:59:08;102225.0;;;14.02;58.96
36834;BME280;48003;52.084;5.224;2023-05-16T08:02:20;102224.0;;;13.81;58.63
36834;BME280;48003;52.084;5.224;2023-05-16T08:03:57;102224.0;;;13.89;58.72
36834;BME280;48003;52.084;5.224;2023-05-16T08:05:33;102225.0;;;13.88;58.94
36834;BME280;48003;52.084;5.224;2023-05-16T08:08:46;102225.0;;;13.79;58.97
36834;BME280;48003;52.084;5.224;2023-05-16T08:10:22;102230.0;;;13.87;58.45
36834;BME280;48003;52.084;5.224;2023-05-16T08:11:58;102226.0;;;13.83;57.96
36834;BME280;48003;52.084;5.224;2023-05-16T08:15:10;102225.0;;;13.78;57.66
36834;BME280;48003;52.084;5.224;2023-05-16T08:16:46;102223.0;;;13.82;57.7
36834;BME280;48003;52.084;5.224;2023-05-16T08:18:22;102221.0;;;13.89;56.41
36834;BME280;48003;52.084;5.224;2023-05-16T08:21:35;102217.0;;;13.99;56.62
36834;BME280;48003;52.084;5.224;2023-05-16T08:23:11;102221.0;;;14.17;56.66
36834;BME280;48003;52.084;5.224;2023-05-16T08:24:49;102221.0;;;14.22;56.15
36834;BME280;48003;52.084;5.224;2023-05-16T08:26:25;102219.0;;;14.17;55.04
36834;BME280;48003;52.084;5.224;2023-05-16T08:29:38;102221.0;;;14.18;53.45
36834;BME280;48003;52.084;5.224;2023-05-16T08:31:14;102225.0;;;14.26;53.16
36834;BME280;48003;52.084;5.224;2023-05-16T08:32:50;102224.0;;;14.29;52.65
36834;BME280;48003;52.084;5.224;2023-05-16T08:36:05;102230.0;;;14.46;52.89
36834;BME280;48003;52.084;5.224;2023-05-16T08:37:42;102222.0;;;14.45;52.1
36834;BME280;48003;52.084;5.224;2023-05-16T08:39:19;102230.0;;;14.55;51.94
36834;BME280;48003;52.084;5.224;2023-05-16T08:40:55;102226.0;;;14.53;50.53
36834;BME280;48003;52.084;5.224;2023-05-16T08:44:08;102236.0;;;14.65;50.33
36834;BME280;48003;52.084;5.224;2023-05-16T08:45:45;102222.0;;;14.73;49.82
36834;BME280;48003;52.084;5.224;2023-05-16T08:47:23;102227.0;;;14.76;50.03
36834;BME280;48003;52.084;5.224;2023-05-16T08:50:39;102216.0;;;14.95;50.64
36834;BME280;48003;52.084;5.224;2023-05-16T08:52:18;102223.0;;;15.07;50.46
36834;BME280;48003;52.084;5.224;2023-05-16T08:53:59;102224.0;;;15.09;50.47
36834;BME280;48003;52.084;5.224;2023-05-16T08:55:39;102232.0;;;15.06;48.74
36834;BME280;48003;52.084;5.224;2023-05-16T08:58:53;102231.0;;;15.01;48.39
36834;BME280;48003;52.084;5.224;2023-05-16T09:00:30;102223.0;;;15.12;48.64
36834;BME280;48003;52.084;5.224;2023-05-16T09:06:58;102230.0;;;15.41;48.92
36834;BME280;48003;52.084;5.224;2023-05-16T09:08:34;102228.0;;;15.32;47.89
36834;BME280;48003;52.084;5.224;2023-05-16T09:11:47;102218.0;;;15.34;47.72
36834;BME280;48003;52.084;5.224;2023-05-16T09:13:24;102222.0;;;15.44;48.75
36834;BME280;48003;52.084;5.224;2023-05-16T09:15:01;102221.0;;;15.62;49.11
36834;BME280;48003;52.084;5.224;2023-05-16T09:16:39;102223.0;;;15.78;49.32
36834;BME280;48003;52.084;5.224;2023-05-16T09:19:51;102219.0;;;15.96;49.03
36834;BME280;48003;52.084;5.224;2023-05-16T09:21:29;102217.0;;;16.02;49.38
36834;BME280;48003;52.084;5.224;2023-05-16T09:23:05;102219.0;;;16.04;49.62
36834;BME280;48003;52.084;5.224;2023-05-16T09:26:21;102225.0;;;15.98;48.84
36834;BME280;48003;52.084;5.224;2023-05-16T09:27:58;102228.0;;;16.06;48.63
36834;BME280;48003;52.084;5.224;2023-05-16T09:29:35;102224.0;;;15.95;48.49
36834;BME280;48003;52.084;5.224;2023-05-16T09:31:20;102225.0;;;15.79;48.49
36834;BME280;48003;52.084;5.224;2023-05-16T09:34:37;102227.0;;;15.75;48.62
36834;BME280;48003;52.084;5.224;2023-05-16T09:36:14;102228.0;;;15.77;49.13
36834;BME280;48003;52.084;5.224;2023-05-16T09:37:50;102228.0;;;15.75;49.09
36834;BME280;48003;52.084;5.224;2023-05-16T09:41:02;102233.0;;;15.6;48.91
36834;BME280;48003;52.084;5.224;2023-05-16T09:42:38;102237.0;;;15.67;48.99
36834;BME280;48003;52.084;5.224;2023-05-16T09:44:16;102232.0;;;15.58;47.62
36834;BME280;48003;52.084;5.224;2023-05-16T09:45:53;102231.0;;;15.56;46.86
36834;BME280;48003;52.084;5.224;2023-05-16T09:49:05;102243.0;;;15.72;46.62
36834;BME280;48003;52.084;5.224;2023-05-16T09:50:46;102235.0;;;15.78;46.4
36834;BME280;48003;52.084;5.224;2023-05-16T09:52:25;102238.0;;;15.84;46.45
36834;BME280;48003;52.084;5.224;2023-05-16T09:55:42;102236.0;;;15.87;46.75
36834;BME280;48003;52.084;5.224;2023-05-16T09:57:18;102234.0;;;15.82;47.8
36834;BME280;48003;52.084;5.224;2023-05-16T09:58:54;102236.0;;;15.87;48.52
36834;BME280;48003;52.084;5.224;2023-05-16T10:00:32;102237.0;;;15.83;49.55
36834;BME280;48003;52.084;5.224;2023-05-16T10:03:46;102240.0;;;16.02;50.16
36834;BME280;48003;52.084;5.224;2023-05-16T10:05:22;102243.0;;;16.02;49.45
36834;BME280;48003;52.084;5.224;2023-05-16T10:07:01;102236.0;;;16.0;45.57
36834;BME280;48003;52.084;5.224;2023-05-16T10:10:18;102235.0;;;16.21;45.88
36834;BME280;48003;52.084;5.224;2023-05-16T10:11:55;102235.0;;;16.25;46.95
36834;BME280;48003;52.084;5.224;2023-05-16T10:13:33;102241.0;;;16.29;47.59
36834;BME280;48003;52.084;5.224;2023-05-16T10:15:10;102232.0;;;16.38;47.45
36834;BME280;48003;52.084;5.224;2023-05-16T10:18:28;102238.0;;;16.15;48.04
36834;BME280;48003;52.084;5.224;2023-05-16T10:20:09;102239.0;;;16.09;48.46
36834;BME280;48003;52.084;5.224;2023-05-16T10:21:50;102242.0;;;16.2;48.52
36834;BME280;48003;52.084;5.224;2023-05-16T10:23:28;102239.0;;;16.07;48.86
36834;BME280;48003;52.084;5.224;2023-05-16T10:26:50;102248.0;;;15.94;49.39
36834;BME280;48003;52.084;5.224;2023-05-16T10:28:28;102238.0;;;16.02;49.7
36834;BME280;48003;52.084;5.224;2023-05-16T10:30:05;102239.0;;;16.02;49.49
36834;BME280;48003;52.084;5.224;2023-05-16T10:33:19;102240.0;;;16.11;48.79
36834;BME280;48003;52.084;5.224;2023-05-16T10:34:55;102233.0;;;16.36;47.08
36834;BME280;48003;52.084;5.224;2023-05-16T10:36:31;102228.0;;;16.4;46.59
36834;BME280;48003;52.084;5.224;2023-05-16T10:38:08;102230.0;;;16.56;45.7
36834;BME280;48003;52.084;5.224;2023-05-16T10:41:23;102230.0;;;16.73;44.27
36834;BME280;48003;52.084;5.224;2023-05-16T10:43:01;102228.0;;;16.7;44.83
36834;BME280;48003;52.084;5.224;2023-05-16T10:44:38;102232.0;;;16.81;45.13
36834;BME280;48003;52.084;5.224;2023-05-16T10:47:52;102235.0;;;16.89;45.73
36834;BME280;48003;52.084;5.224;2023-05-16T10:49:29;102235.0;;;16.75;45.84
36834;BME280;48003;52.084;5.224;2023-05-16T10:51:33;102236.0;;;16.73;45.78
36834;BME280;48003;52.084;5.224;2023-05-16T10:53:14;102231.0;;;16.75;45.78
36834;BME280;48003;52.084;5.224;2023-05-16T10:55:01;102233.0;;;16.68;45.67
36834;BME280;48003;52.084;5.224;2023-05-16T10:58:21;102237.0;;;16.66;45.4
36834;BME280;48003;52.084;5.224;2023-05-16T10:59:57;102231.0;;;16.72;44.62
36834;BME280;48003;52.084;5.224;2023-05-16T11:01:34;102235.0;;;16.52;44.36
36834;BME280;48003;52.084;5.224;2023-05-16T11:03:21;102240.0;;;16.52;44.81
36834;BME280;48003;52.084;5.224;2023-05-16T11:06:45;102240.0;;;16.41;44.64
36834;BME280;48003;52.084;5.224;2023-05-16T11:08:28;102239.0;;;16.52;45.01
36834;BME280;48003;52.084;5.224;2023-05-16T11:10:06;102243.0;;;16.61;44.89